This is the latest recevied weather packets stored in our database for station/object N6AMQ-1. If no packets are shown the sender has not sent any weather packets the latest 1 day(s).
| Time | Temp. | Humidity | Pressure | Rain* | Wind** | Luminosity | Snow |
|---|---|---|---|---|---|---|---|
| 1778103230 | 21.67° C | 58% | 1019 hPa | 0 mm | - | - | - |
| 1778100830 | 21.11° C | 60% | 1020 hPa | 0 mm | - | - | - |
| 1778098432 | 20° C | 63% | 1020 hPa | 0 mm | - | - | - |
| 1778096031 | 19.44° C | 65% | 1020 hPa | 0 mm | - | - | - |
| 1778095069 | 18.89° C | 68% | 1021 hPa | 0 mm | - | - | - |
| 1778084031 | 14.44° C | 82% | 1021 hPa | 0 mm | - | - | - |
| 1778076831 | 12.78° C | 88% | 1021 hPa | 0 mm | - | - | - |
| 1778076769 | 12.78° C | 88% | 1021 hPa | 0 mm | - | - | - |
| 1778071968 | 12.22° C | 87% | 1020 hPa | 0 mm | - | - | - |
| 1778068432 | 12.78° C | 84% | 1020 hPa | 0 mm | - | - | - |
| 1778063630 | 13.89° C | 82% | 1019 hPa | 0 mm | - | - | - |
| 1778062432 | 14.44° C | 81% | 1019 hPa | 0 mm | - | - | - |
| 1778061231 | 14.44° C | 81% | 1019 hPa | 0 mm | - | - | - |
| 1778060030 | 14.44° C | 80% | 1019 hPa | 0 mm | - | - | - |
| 1778059368 | 14.44° C | 80% | 1019 hPa | 0 mm | - | - | - |
| 1778058831 | 14.44° C | 80% | 1019 hPa | 0 mm | - | - | - |
| 1778058768 | 14.44° C | 79% | 1019 hPa | 0 mm | - | - | - |
| 1778057630 | 14.44° C | 79% | 1019 hPa | 0 mm | - | - | - |
| 1778057568 | 14.44° C | 79% | 1019 hPa | 0 mm | - | - | - |
| 1778056968 | 14.44° C | 78% | 1019 hPa | 0 mm | - | - | - |
| 1778056430 | 14.44° C | 78% | 1019 hPa | 0 mm | - | - | - |
| 1778055768 | 14.44° C | 78% | 1019 hPa | 0 mm | - | - | - |
| 1778055230 | 14.44° C | 77% | 1019 hPa | 0 mm | - | - | - |
| 1778054268 | 14.44° C | 77% | 1019 hPa | 0 mm | - | - | - |
| 1778054031 | 14.44° C | 77% | 1019 hPa | 0 mm | - | - | - |
* Rain latest hour (hover to see other rain measurements)
** Current wind speed in m/s (hover to see current wind gust speed)